createdAt,value
2019-05-26T00:00:15.615Z,95315.41
2019-05-26T00:02:48.354Z,95310.48
2019-05-26T00:05:21.128Z,95316.57
2019-05-26T00:07:53.928Z,95314.42
2019-05-26T00:10:26.739Z,95310.34
2019-05-26T00:12:59.437Z,95304.51
2019-05-26T00:15:32.171Z,95307.11
2019-05-26T00:18:04.967Z,95301.90
2019-05-26T00:20:37.606Z,95294.82
2019-05-26T00:23:10.468Z,95301.11
2019-05-26T00:25:43.102Z,95288.25
2019-05-26T00:28:15.694Z,95293.02
2019-05-26T00:30:48.737Z,95291.39
2019-05-26T00:33:21.470Z,95300.64
2019-05-26T00:35:54.109Z,95297.22
2019-05-26T00:38:26.786Z,95291.48
2019-05-26T00:40:59.465Z,95293.27
2019-05-26T00:43:32.244Z,95284.64
2019-05-26T00:46:05.076Z,95280.50
2019-05-26T00:48:37.824Z,95286.70
2019-05-26T00:51:10.490Z,95280.25
2019-05-26T00:53:43.166Z,95279.39
2019-05-26T00:56:15.802Z,95283.91
2019-05-26T00:58:48.437Z,95275.19
2019-05-26T01:01:21.159Z,95273.74
2019-05-26T01:03:53.886Z,95272.00
2019-05-26T01:06:26.596Z,95270.94
2019-05-26T01:08:59.317Z,95272.30
2019-05-26T01:11:32.048Z,95274.38
2019-05-26T01:14:05.364Z,95279.28
2019-05-26T01:16:37.975Z,95276.00
2019-05-26T01:19:10.796Z,95274.23
2019-05-26T01:21:43.477Z,95274.84
2019-05-26T01:24:16.129Z,95281.16
2019-05-26T01:26:48.834Z,95279.25
2019-05-26T01:29:21.596Z,95285.77
2019-05-26T01:31:54.338Z,95280.63
2019-05-26T01:34:27.037Z,95288.88
2019-05-26T01:37:00.211Z,95289.42
2019-05-26T01:39:32.954Z,95293.08
2019-05-26T01:42:05.729Z,95291.91
2019-05-26T01:44:38.351Z,95291.05
2019-05-26T01:47:11.246Z,95289.22
2019-05-26T01:49:43.813Z,95289.65
2019-05-26T01:52:16.502Z,95294.38
2019-05-26T01:54:49.199Z,95296.92
2019-05-26T01:57:21.952Z,95299.81
2019-05-26T01:59:54.603Z,95292.38
2019-05-26T02:02:27.302Z,95286.46
2019-05-26T02:04:59.977Z,95298.31
2019-05-26T02:07:32.688Z,95291.37
2019-05-26T02:10:06.155Z,95289.70
2019-05-26T02:12:38.784Z,95289.79
2019-05-26T02:15:13.416Z,95286.95
2019-05-26T02:17:46.097Z,95283.28
2019-05-26T02:20:20.286Z,95281.53
2019-05-26T02:22:52.964Z,95291.13
2019-05-26T02:25:27.431Z,95287.75
2019-05-26T02:28:00.244Z,95291.66
2019-05-26T02:30:32.967Z,95289.67
2019-05-26T02:33:05.940Z,95283.45
2019-05-26T02:35:38.673Z,95284.83
2019-05-26T02:38:11.409Z,95288.45
2019-05-26T02:40:44.157Z,95280.38
2019-05-26T02:43:16.889Z,95274.58
2019-05-26T02:45:49.653Z,95279.53
2019-05-26T02:48:22.345Z,95276.92
2019-05-26T02:50:55.126Z,95271.31
2019-05-26T02:53:27.926Z,95275.55
2019-05-26T02:56:00.991Z,95273.17
2019-05-26T02:58:33.670Z,95276.69
2019-05-26T03:01:06.662Z,95276.50
2019-05-26T03:03:39.539Z,95276.81
2019-05-26T03:06:14.299Z,95264.08
2019-05-26T03:08:48.380Z,95270.00
2019-05-26T03:11:24.386Z,95268.41
2019-05-26T03:14:00.413Z,95274.02
2019-05-26T03:16:37.706Z,95270.40
2019-05-26T03:19:10.444Z,95271.50
2019-05-26T03:21:47.335Z,95278.44
2019-05-26T03:24:23.388Z,95273.84
2019-05-26T03:26:56.796Z,95272.61
2019-05-26T03:29:29.636Z,95271.61
2019-05-26T03:32:02.453Z,95269.00
2019-05-26T03:34:35.207Z,95269.36
2019-05-26T03:37:08.013Z,95271.67
2019-05-26T03:39:45.186Z,95272.16
2019-05-26T03:42:15.257Z,95275.81
2019-05-26T03:44:47.976Z,95270.00
2019-05-26T03:47:20.690Z,95269.54
2019-05-26T03:49:53.504Z,95262.75
2019-05-26T03:52:26.828Z,95267.37
2019-05-26T03:54:59.503Z,95269.63
2019-05-26T03:57:32.295Z,95276.16
2019-05-26T04:00:06.134Z,95277.94
2019-05-26T04:02:39.003Z,95273.23
2019-05-26T04:05:11.712Z,95284.60
2019-05-26T04:07:44.423Z,95281.92
2019-05-26T04:10:18.283Z,95284.06
2019-05-26T04:12:50.981Z,95287.77
2019-05-26T04:15:23.652Z,95283.66
2019-05-26T04:17:56.876Z,95287.82
2019-05-26T04:20:29.601Z,95294.98
2019-05-26T04:23:02.254Z,95293.25
2019-05-26T04:25:35.138Z,95290.73
2019-05-26T04:28:07.921Z,95290.39
2019-05-26T04:30:40.693Z,95292.13
2019-05-26T04:33:13.494Z,95290.29
2019-05-26T04:35:46.255Z,95289.09
2019-05-26T04:38:18.967Z,95290.81
2019-05-26T04:40:51.640Z,95291.30
2019-05-26T04:43:24.367Z,95294.33
2019-05-26T04:45:57.170Z,95298.45
2019-05-26T04:48:29.888Z,95301.88
2019-05-26T04:51:02.588Z,95300.66
2019-05-26T04:53:35.311Z,95300.87
2019-05-26T04:56:08.129Z,95304.83
2019-05-26T04:58:40.864Z,95307.65
2019-05-26T05:01:13.669Z,95306.75
2019-05-26T05:03:46.576Z,95306.34
2019-05-26T05:06:19.252Z,95310.67
2019-05-26T05:08:52.013Z,95312.74
2019-05-26T05:11:24.802Z,95309.24
2019-05-26T05:13:57.676Z,95311.08
2019-05-26T05:16:30.408Z,95309.77
2019-05-26T05:19:03.146Z,95312.34
2019-05-26T05:21:35.975Z,95304.23
2019-05-26T05:24:09.013Z,95317.81
2019-05-26T05:26:41.691Z,95313.08
2019-05-26T05:29:14.395Z,95305.64
2019-05-26T05:31:47.199Z,95312.29
2019-05-26T05:34:19.906Z,95311.28
2019-05-26T05:36:52.642Z,95315.89
2019-05-26T05:39:25.381Z,95310.14
2019-05-26T05:41:58.081Z,95311.48
2019-05-26T05:44:30.849Z,95305.06
2019-05-26T05:47:03.632Z,95314.70
2019-05-26T05:49:36.537Z,95311.58
2019-05-26T05:52:09.231Z,95308.34
2019-05-26T05:54:42.026Z,95314.69
2019-05-26T05:57:14.716Z,95312.94
2019-05-26T05:59:47.526Z,95317.75
2019-05-26T06:02:20.401Z,95318.60
2019-05-26T06:04:53.273Z,95320.16
2019-05-26T06:07:26.039Z,95322.47
2019-05-26T06:09:58.779Z,95320.47
2019-05-26T06:12:31.548Z,95317.75
2019-05-26T06:15:05.253Z,95317.73
2019-05-26T06:17:37.988Z,95326.20
2019-05-26T06:20:11.780Z,95326.43
2019-05-26T06:22:44.558Z,95326.33
2019-05-26T06:25:17.518Z,95327.02
2019-05-26T06:27:50.331Z,95323.38
2019-05-26T06:30:23.303Z,95333.09
2019-05-26T06:32:56.066Z,95329.06
2019-05-26T06:35:32.457Z,95335.20
2019-05-26T06:38:03.169Z,95330.13
2019-05-26T06:40:35.863Z,95327.91
2019-05-26T06:43:08.769Z,95340.22
2019-05-26T06:45:41.549Z,95334.67
2019-05-26T06:48:14.363Z,95334.98
2019-05-26T06:50:47.219Z,95325.82
2019-05-26T06:53:19.942Z,95337.85
2019-05-26T06:55:52.795Z,95336.91
2019-05-26T06:58:25.621Z,95327.62
2019-05-26T07:00:58.320Z,95324.59
2019-05-26T07:03:31.091Z,95328.37
2019-05-26T07:06:03.882Z,95331.43
2019-05-26T07:08:36.648Z,95327.28
2019-05-26T07:11:09.343Z,95321.25
2019-05-26T07:13:42.206Z,95330.03
2019-05-26T07:16:15.192Z,95318.00
2019-05-26T07:18:48.134Z,95322.73
2019-05-26T07:21:20.941Z,95321.73
2019-05-26T07:23:53.685Z,95326.12
2019-05-26T07:26:26.540Z,95314.52
2019-05-26T07:28:59.410Z,95321.23
2019-05-26T07:31:32.496Z,95322.16
2019-05-26T07:34:05.391Z,95317.41
2019-05-26T07:36:38.084Z,95313.48
2019-05-26T07:39:11.228Z,95316.11
2019-05-26T07:41:43.985Z,95324.04
2019-05-26T07:44:16.709Z,95321.42
2019-05-26T07:46:49.492Z,95315.33
2019-05-26T07:49:22.378Z,95317.56
2019-05-26T07:51:55.195Z,95317.09
2019-05-26T07:54:27.930Z,95320.61
2019-05-26T07:57:00.681Z,95312.26
2019-05-26T07:59:33.479Z,95307.31
2019-05-26T08:02:05.920Z,95305.55
2019-05-26T08:04:38.757Z,95299.34
2019-05-26T08:07:11.619Z,95301.64
2019-05-26T08:09:44.434Z,95299.16
2019-05-26T08:12:26.890Z,95299.09
2019-05-26T08:14:52.846Z,95304.16
2019-05-26T08:17:25.646Z,95301.62
2019-05-26T08:19:58.416Z,95293.97
2019-05-26T08:22:31.135Z,95293.70
2019-05-26T08:25:04.381Z,95295.78
2019-05-26T08:27:37.208Z,95294.27
2019-05-26T08:30:11.320Z,95291.56
2019-05-26T08:32:44.165Z,95292.95
2019-05-26T08:35:17.013Z,95287.75
2019-05-26T08:37:49.896Z,95293.22
2019-05-26T08:40:22.710Z,95285.24
2019-05-26T08:42:55.753Z,95281.39
2019-05-26T08:45:28.578Z,95285.52
2019-05-26T08:48:03.717Z,95283.19
2019-05-26T08:50:36.494Z,95266.41
2019-05-26T08:53:09.514Z,95272.83
2019-05-26T08:55:42.262Z,95266.77
2019-05-26T08:58:15.189Z,95261.02
2019-05-26T09:00:48.112Z,95265.03
2019-05-26T09:03:20.854Z,95260.53
2019-05-26T09:05:53.580Z,95264.77
2019-05-26T09:08:26.968Z,95268.55
2019-05-26T09:10:59.768Z,95272.03
2019-05-26T09:13:32.560Z,95263.30
2019-05-26T09:16:05.545Z,95269.16
2019-05-26T09:18:38.359Z,95263.33
2019-05-26T09:21:11.388Z,95262.02
2019-05-26T09:23:44.393Z,95263.08
2019-05-26T09:26:17.201Z,95255.86
2019-05-26T09:28:49.913Z,95255.71
2019-05-26T09:31:22.657Z,95249.73
2019-05-26T09:33:55.385Z,95251.84
2019-05-26T09:36:28.090Z,95248.42
2019-05-26T09:39:00.959Z,95248.56
2019-05-26T09:41:33.682Z,95248.07
2019-05-26T09:44:06.576Z,95253.52
2019-05-26T09:46:39.318Z,95249.34
2019-05-26T09:49:12.189Z,95250.66
2019-05-26T09:51:45.386Z,95254.92
2019-05-26T09:54:18.150Z,95251.00
2019-05-26T09:56:50.869Z,95243.60
2019-05-26T09:59:23.780Z,95248.45
2019-05-26T10:01:56.610Z,95250.64
2019-05-26T10:04:29.338Z,95245.80
2019-05-26T10:07:02.141Z,95240.70
2019-05-26T10:09:35.246Z,95236.94
2019-05-26T10:12:08.264Z,95235.76
2019-05-26T10:14:42.033Z,95233.38
2019-05-26T10:17:14.773Z,95235.85
2019-05-26T10:19:47.638Z,95236.41
2019-05-26T10:22:20.478Z,95229.30
2019-05-26T10:24:53.173Z,95227.97
2019-05-26T10:27:25.951Z,95234.14
2019-05-26T10:29:58.720Z,95237.43
2019-05-26T10:32:31.646Z,95236.84
2019-05-26T10:35:04.617Z,95240.44
2019-05-26T10:37:37.323Z,95244.89
2019-05-26T10:40:12.291Z,95236.63
2019-05-26T10:42:44.980Z,95233.41
2019-05-26T10:45:18.237Z,95231.90
2019-05-26T10:47:51.013Z,95231.63
2019-05-26T10:50:23.882Z,95231.68
2019-05-26T10:52:56.984Z,95229.84
2019-05-26T10:55:29.792Z,95231.66
2019-05-26T10:58:02.556Z,95220.27
2019-05-26T11:00:35.254Z,95223.67
2019-05-26T11:03:08.172Z,95230.92
2019-05-26T11:05:40.956Z,95226.59
2019-05-26T11:08:13.775Z,95229.23
2019-05-26T11:10:46.497Z,95228.30
2019-05-26T11:13:19.240Z,95229.35
2019-05-26T11:15:52.075Z,95218.98
2019-05-26T11:18:24.816Z,95213.50
2019-05-26T11:20:57.590Z,95207.16
2019-05-26T11:23:30.384Z,95203.36
2019-05-26T11:26:03.208Z,95205.09
2019-05-26T11:28:35.905Z,95192.33
2019-05-26T11:31:08.778Z,95192.80
2019-05-26T11:33:41.819Z,95189.77
2019-05-26T11:36:14.638Z,95188.98
2019-05-26T11:38:47.472Z,95184.58
2019-05-26T11:41:20.245Z,95180.88
2019-05-26T11:43:53.037Z,95177.87
2019-05-26T11:46:25.757Z,95175.50
2019-05-26T11:48:58.557Z,95180.80
2019-05-26T11:51:31.333Z,95189.83
2019-05-26T11:54:04.228Z,95180.53
2019-05-26T11:56:36.883Z,95180.88
2019-05-26T11:59:09.627Z,95177.91
2019-05-26T12:01:42.433Z,95181.12
2019-05-26T12:04:15.179Z,95181.12
2019-05-26T12:06:47.952Z,95180.59
2019-05-26T12:09:20.746Z,95170.44
2019-05-26T12:11:53.585Z,95177.83
2019-05-26T12:14:34.809Z,95170.48
2019-05-26T12:17:05.491Z,95177.59
2019-05-26T12:19:38.195Z,95169.53
2019-05-26T12:22:11.029Z,95164.41
2019-05-26T12:24:43.806Z,95161.08
2019-05-26T12:27:16.105Z,95163.03
2019-05-26T12:29:48.857Z,95163.19
2019-05-26T12:32:21.576Z,95162.14
2019-05-26T12:34:54.270Z,95161.37
2019-05-26T12:37:27.058Z,95158.50
2019-05-26T12:39:59.778Z,95156.62
2019-05-26T12:42:32.484Z,95163.80
2019-05-26T12:45:06.006Z,95157.19
2019-05-26T12:47:38.810Z,95160.30
2019-05-26T12:50:14.302Z,95151.02
2019-05-26T12:52:47.082Z,95148.98
2019-05-26T12:55:19.862Z,95149.76
2019-05-26T12:57:52.664Z,95151.41
2019-05-26T13:00:25.587Z,95149.72
2019-05-26T13:03:00.784Z,95141.52
2019-05-26T13:05:33.545Z,95142.59
2019-05-26T13:08:06.767Z,95139.14
2019-05-26T13:10:39.592Z,95139.67
2019-05-26T13:13:12.405Z,95136.77
2019-05-26T13:15:46.212Z,95139.70
2019-05-26T13:18:19.011Z,95139.59
2019-05-26T13:20:51.980Z,95131.33
2019-05-26T13:23:24.726Z,95135.91
2019-05-26T13:25:57.464Z,95139.35
2019-05-26T13:28:30.275Z,95130.37
2019-05-26T13:31:02.989Z,95132.82
2019-05-26T13:33:35.801Z,95133.24
2019-05-26T13:36:08.571Z,95135.59
2019-05-26T13:38:41.239Z,95128.23
2019-05-26T13:41:13.961Z,95115.27
2019-05-26T13:43:46.001Z,95119.63
2019-05-26T13:46:18.795Z,95114.09
2019-05-26T13:48:53.342Z,95110.17
2019-05-26T13:51:26.065Z,95105.88
2019-05-26T13:53:58.056Z,95106.41
2019-05-26T13:56:30.882Z,95110.06
2019-05-26T13:59:03.867Z,95108.48
2019-05-26T14:01:36.609Z,95110.36
2019-05-26T14:04:09.358Z,95109.03
2019-05-26T14:06:42.298Z,95106.41
2019-05-26T14:09:15.152Z,95106.67
2019-05-26T14:11:47.981Z,95110.67
2019-05-26T14:14:20.803Z,95107.60
2019-05-26T14:16:56.182Z,95106.09
2019-05-26T14:19:31.936Z,95101.43
2019-05-26T14:22:04.668Z,95100.39
2019-05-26T14:24:50.904Z,95103.89
2019-05-26T14:27:11.924Z,95099.52
2019-05-26T14:29:44.819Z,95093.91
2019-05-26T14:32:17.472Z,95095.02
2019-05-26T14:34:49.729Z,95090.73
2019-05-26T14:37:22.447Z,95090.80
2019-05-26T14:39:55.191Z,95085.83
2019-05-26T14:42:27.823Z,95081.36
2019-05-26T14:45:03.901Z,95083.47
2019-05-26T14:47:34.964Z,95084.35
2019-05-26T14:50:10.335Z,95080.23
2019-05-26T14:52:43.021Z,95083.73
2019-05-26T14:55:16.058Z,95084.12
2019-05-26T14:57:48.914Z,95081.75
2019-05-26T15:00:22.634Z,95081.97
2019-05-26T15:02:55.331Z,95080.27
2019-05-26T15:05:28.042Z,95072.86
2019-05-26T15:08:00.806Z,95073.30
2019-05-26T15:10:33.533Z,95069.02
2019-05-26T15:13:06.376Z,95073.59
2019-05-26T15:15:39.185Z,95071.80
2019-05-26T15:18:12.099Z,95065.89
2019-05-26T15:20:44.914Z,95072.49
2019-05-26T15:23:17.966Z,95069.59
2019-05-26T15:25:53.761Z,95069.86
2019-05-26T15:28:26.646Z,95074.53
2019-05-26T15:30:59.591Z,95078.92
2019-05-26T15:33:32.369Z,95068.61
2019-05-26T15:36:05.072Z,95064.22
2019-05-26T15:38:43.086Z,95058.84
2019-05-26T15:41:12.291Z,95070.05
2019-05-26T15:43:44.991Z,95061.00
2019-05-26T15:46:25.165Z,95065.56
2019-05-26T15:48:52.128Z,95064.30
2019-05-26T15:51:27.113Z,95068.80
2019-05-26T15:53:59.919Z,95060.57
2019-05-26T15:56:32.670Z,95062.96
2019-05-26T15:59:05.494Z,95061.64
2019-05-26T16:01:38.355Z,95062.70
2019-05-26T16:04:11.129Z,95060.06
2019-05-26T16:06:43.843Z,95054.20
2019-05-26T16:09:16.684Z,95048.92
2019-05-26T16:11:49.538Z,95055.03
2019-05-26T16:14:23.535Z,95060.31
2019-05-26T16:16:57.338Z,95051.56
2019-05-26T16:19:30.040Z,95049.45
2019-05-26T16:22:02.835Z,95044.66
2019-05-26T16:24:35.678Z,95042.27
2019-05-26T16:27:18.684Z,95039.56
2019-05-26T16:29:42.908Z,95040.15
2019-05-26T16:32:18.784Z,95036.91
2019-05-26T16:34:50.302Z,95032.71
2019-05-26T16:37:23.045Z,95036.98
2019-05-26T16:39:56.111Z,95030.48
2019-05-26T16:42:28.933Z,95027.09
2019-05-26T16:45:01.670Z,95025.55
2019-05-26T16:47:34.384Z,95025.55
2019-05-26T16:50:08.959Z,95020.00
2019-05-26T16:52:41.054Z,95025.84
2019-05-26T16:55:15.209Z,95021.86
2019-05-26T16:57:47.998Z,95025.50
2019-05-26T17:00:21.789Z,95024.41
2019-05-26T17:02:54.515Z,95022.31
2019-05-26T17:05:27.229Z,95018.33
2019-05-26T17:08:00.185Z,95014.34
2019-05-26T17:10:32.903Z,95016.94
2019-05-26T17:13:05.619Z,95013.92
2019-05-26T17:15:39.948Z,95017.95
2019-05-26T17:18:12.842Z,95010.94
2019-05-26T17:20:45.580Z,95009.36
2019-05-26T17:23:18.356Z,95009.85
2019-05-26T17:25:51.186Z,95004.20
2019-05-26T17:28:23.895Z,95009.17
2019-05-26T17:30:56.733Z,95002.55
2019-05-26T17:33:29.521Z,95002.78
2019-05-26T17:36:07.400Z,95002.34
2019-05-26T17:38:40.144Z,95005.94
2019-05-26T17:41:13.042Z,95007.03
2019-05-26T17:43:45.781Z,95010.38
2019-05-26T17:46:18.557Z,95005.84
2019-05-26T17:48:51.265Z,95009.86
2019-05-26T17:51:23.961Z,95005.72
2019-05-26T17:53:57.177Z,95006.91
2019-05-26T17:56:32.461Z,95006.95
2019-05-26T17:59:05.446Z,95007.51
2019-05-26T18:01:38.179Z,95002.38
2019-05-26T18:04:10.997Z,94994.47
2019-05-26T18:06:43.690Z,94998.69
2019-05-26T18:09:16.473Z,95001.91
2019-05-26T18:11:53.625Z,95002.77
2019-05-26T18:14:26.303Z,95000.89
2019-05-26T18:16:59.229Z,95001.61
2019-05-26T18:19:34.053Z,95001.27
2019-05-26T18:22:07.433Z,95004.21
2019-05-26T18:24:53.296Z,94995.61
2019-05-26T18:27:15.942Z,94997.66
2019-05-26T18:29:48.730Z,94995.99
2019-05-26T18:32:21.435Z,95003.32
2019-05-26T18:34:54.351Z,94994.53
2019-05-26T18:37:27.060Z,94992.95
2019-05-26T18:39:59.740Z,95004.81
2019-05-26T18:42:32.532Z,95000.40
2019-05-26T18:45:05.642Z,94997.55
2019-05-26T18:47:37.969Z,94995.96
2019-05-26T18:50:13.554Z,94989.56
2019-05-26T18:52:46.298Z,94992.19
2019-05-26T18:55:19.060Z,94989.53
2019-05-26T18:57:52.997Z,94987.90
2019-05-26T19:00:30.918Z,94992.47
2019-05-26T19:03:00.245Z,94991.21
2019-05-26T19:05:38.061Z,94992.73
2019-05-26T19:08:07.897Z,94986.42
2019-05-26T19:10:40.715Z,95001.41
2019-05-26T19:13:13.689Z,95004.31
2019-05-26T19:15:46.532Z,94999.03
2019-05-26T19:18:20.742Z,94994.52
2019-05-26T19:20:53.676Z,94998.26
2019-05-26T19:23:26.639Z,95000.77
2019-05-26T19:26:02.536Z,95002.48
2019-05-26T19:28:35.279Z,95008.42
2019-05-26T19:31:07.985Z,95004.42
2019-05-26T19:33:40.737Z,95009.24
2019-05-26T19:36:13.527Z,95005.76
2019-05-26T19:38:46.256Z,95006.07
2019-05-26T19:41:18.948Z,95012.42
2019-05-26T19:43:51.711Z,95021.84
2019-05-26T19:46:25.288Z,95028.66
2019-05-26T19:48:58.066Z,95026.02
2019-05-26T19:51:31.021Z,95037.41
2019-05-26T19:54:06.362Z,95043.67
2019-05-26T19:56:38.340Z,95039.09
2019-05-26T19:59:11.212Z,95033.25
2019-05-26T20:01:44.173Z,95040.45
2019-05-26T20:04:16.994Z,95045.03
2019-05-26T21:42:51.799Z,95040.84
2019-05-26T21:45:24.502Z,95040.84
2019-05-26T21:47:57.188Z,95037.63
2019-05-26T21:50:29.831Z,95037.14
2019-05-26T21:53:02.584Z,95032.13
2019-05-26T21:55:35.417Z,95028.91
2019-05-26T21:58:08.303Z,95036.52
2019-05-26T22:00:44.955Z,95028.30
2019-05-26T22:03:17.721Z,95032.41
2019-05-26T22:05:50.309Z,95037.74
2019-05-26T22:08:23.045Z,95034.13
2019-05-26T22:10:55.791Z,95031.70
2019-05-26T22:13:27.791Z,95036.50
2019-05-26T22:16:00.523Z,95038.97
2019-05-26T22:18:34.232Z,95035.66
2019-05-26T22:21:07.960Z,95031.97
2019-05-26T22:23:41.913Z,95029.55
2019-05-26T22:26:15.749Z,95030.93
2019-05-26T22:28:49.321Z,95033.41
2019-05-26T22:31:22.153Z,95024.45
2019-05-26T22:33:55.734Z,95028.03
2019-05-26T22:36:29.285Z,95027.16
2019-05-26T22:39:02.665Z,95024.56
2019-05-26T22:41:36.184Z,95029.19
2019-05-26T22:44:10.150Z,95029.03
2019-05-26T22:46:42.369Z,95019.38
2019-05-26T22:49:30.966Z,95017.64
2019-05-26T22:52:03.624Z,95022.16
2019-05-26T22:54:36.607Z,95025.16
2019-05-26T22:57:09.360Z,95029.02
2019-05-26T22:59:42.008Z,95018.87
2019-05-26T23:02:15.079Z,95011.66
2019-05-26T23:04:47.782Z,95016.27
2019-05-26T23:07:20.535Z,95006.05
2019-05-26T23:09:53.187Z,95005.92
2019-05-26T23:12:25.958Z,95009.89
2019-05-26T23:14:58.710Z,95009.54
2019-05-26T23:17:31.343Z,95014.94
2019-05-26T23:20:04.207Z,95006.72
2019-05-26T23:22:36.923Z,95000.28
2019-05-26T23:25:10.552Z,95004.77
2019-05-26T23:27:43.274Z,95002.56
2019-05-26T23:30:16.795Z,95004.38
2019-05-26T23:32:49.403Z,95004.77
2019-05-26T23:35:22.080Z,95011.57
2019-05-26T23:37:54.717Z,95003.77
2019-05-26T23:40:27.340Z,94999.25
2019-05-26T23:43:00.012Z,94997.62
2019-05-26T23:45:32.652Z,94998.05
2019-05-26T23:48:05.293Z,94996.19
2019-05-26T23:50:38.061Z,94995.58
2019-05-26T23:53:10.726Z,94994.11
2019-05-26T23:55:43.453Z,94993.59
2019-05-26T23:58:16.135Z,94988.39
